This is the latest recevied weather packets stored in our database for station/object K0BL. If no packets are shown the sender has not sent any weather packets the latest 10 day(s).
| Time | Temp. | Humidity | Pressure | Rain* | Wind** | Luminosity | Snow |
|---|---|---|---|---|---|---|---|
| 1777827742 | 18.33° C | 50% | 1007.5 hPa | 0 mm | - | 520 W/m² | - |
| 1777825943 | 17.78° C | 51% | 1007.8 hPa | 0 mm | - | 738 W/m² | - |
| 1777821737 | 16.67° C | 50% | 1008 hPa | 0 mm | - | 426 W/m² | - |
| 1777813018 | 11.67° C | 60% | 1010 hPa | 0 mm | - | 158 W/m² | - |
| 1777807014 | 10.56° C | 59% | 1010.2 hPa | 0 mm | - | 2 W/m² | - |
| 1777806108 | 10.56° C | 59% | 1010.3 hPa | 0 mm | - | 0 W/m² | - |
| 1777801903 | 10° C | 60% | 1011.5 hPa | 0 mm | - | 0 W/m² | - |
| 1777801603 | 10° C | 60% | 1011.5 hPa | 0 mm | - | 0 W/m² | - |
| 1777789588 | 8.33° C | 66% | 1012.7 hPa | 0 mm | - | 0 W/m² | - |
| 1777788388 | 7.78° C | 69% | 1013 hPa | 0 mm | - | 0 W/m² | - |
| 1777787788 | 7.78° C | 68% | 1012.9 hPa | 0 mm | - | 0 W/m² | - |
| 1777786588 | 7.78° C | 69% | 1013.2 hPa | 0 mm | - | 0 W/m² | - |
| 1777784788 | 7.22° C | 73% | 1013.5 hPa | 0 mm | - | 0 W/m² | - |
| 1777782685 | 7.22° C | 73% | 1013.6 hPa | 0 mm | - | 0 W/m² | - |
| 1777780584 | 7.78° C | 76% | 1014 hPa | 0 mm | - | 0 W/m² | - |
| 1777779378 | 7.78° C | 76% | 1014.2 hPa | 0 mm | - | 0 W/m² | - |
| 1777779077 | 7.78° C | 75% | 1014.3 hPa | 0 mm | - | 0 W/m² | - |
| 1777778774 | 7.78° C | 74% | 1014.3 hPa | 0 mm | - | 0 W/m² | - |
| 1777778474 | 7.78° C | 74% | 1014.4 hPa | 0 mm | - | 0 W/m² | - |
| 1777777270 | 8.33° C | 74% | 1014.5 hPa | 0 mm | - | 0 W/m² | - |
| 1777775470 | 9.44° C | 71% | 1014.6 hPa | 0 mm | - | 0 W/m² | - |
| 1777773661 | 10.56° C | 65% | 1014.4 hPa | 0 mm | - | 0 W/m² | - |
| 1777770356 | 13.89° C | 46% | 1014.2 hPa | 0 mm | - | 4 W/m² | - |
| 1777769757 | 14.44° C | 43% | 1014.2 hPa | 0 mm | - | 10 W/m² | - |
| 1777768856 | 15.56° C | 40% | 1014.2 hPa | 0 mm | - | 20 W/m² | - |
* Rain latest hour (hover to see other rain measurements)
** Current wind speed in m/s (hover to see current wind gust speed)